CGH2 weather

Public forecast

Using degrees Celsius for public forecast. Weather courtesy of forecast.io.

Closest aviation weather report (METAR) to Gander (James Paton Memorial Regional Health Centre) Heliport

Closest report is Gander International Airport, 2.6 nm (4.8 km) ESE. Retrieved 2020/08/11 00:00 UTC (38 minutes ago):

CYQX 110000Z 15006KT 20SM FEW065 FEW120 19/17 A2999 RMK CU1AC1 CU TR SLP157 DENSITY ALT 1000FT

Closest aviation forecast (TAF) to Gander (James Paton Memorial Regional Health Centre) Heliport

Closest forecast is Gander International Airport, 2.6 nm (4.8 km) ESE. Retrieved 2020-08-11 00:42 UTC (0 seconds ago):

TAF CYQX 102338Z 1100/1124 14008KT P6SM FEW060 BECMG 1100/1102 22010KT FM110600 20010KT P6SM FEW008 FM111200 22012KT P6SM FEW060 FM111500 22012G22KT P6SM SCT060 FM111800 24012G22KT P6SM BKN060 FM112300 21012G22KT P6SM SCT060 RMK NXT FCST BY 110600Z